createdAt,value
2019-02-09T00:01:16.117Z,7.92
2019-02-09T00:03:48.921Z,8.23
2019-02-09T00:06:21.660Z,8.08
2019-02-09T00:08:54.329Z,8.17
2019-02-09T00:11:27.124Z,8.40
2019-02-09T00:13:59.890Z,8.37
2019-02-09T00:16:32.551Z,8.08
2019-02-09T00:19:05.170Z,7.68
2019-02-09T00:21:37.923Z,7.93
2019-02-09T00:24:10.673Z,8.12
2019-02-09T00:26:46.201Z,7.99
2019-02-09T00:29:19.050Z,8.16
2019-02-09T00:31:51.759Z,8.41
2019-02-09T00:34:24.497Z,8.44
2019-02-09T00:36:57.485Z,8.53
2019-02-09T00:39:30.195Z,8.50
2019-02-09T00:42:02.936Z,8.74
2019-02-09T00:44:35.673Z,8.46
2019-02-09T00:47:07.947Z,8.90
2019-02-09T00:49:40.598Z,8.94
2019-02-09T00:52:13.348Z,8.80
2019-02-09T00:54:46.098Z,8.66
2019-02-09T00:57:19.699Z,8.64
2019-02-09T00:59:54.152Z,8.77
2019-02-09T01:02:26.651Z,8.99
2019-02-09T01:04:59.325Z,8.89
2019-02-09T01:07:32.000Z,8.74
2019-02-09T01:10:07.345Z,9.03
2019-02-09T01:12:40.125Z,9.29
2019-02-09T01:15:15.582Z,9.09
2019-02-09T01:17:48.478Z,9.05
2019-02-09T01:20:24.503Z,9.14
2019-02-09T01:22:58.472Z,9.46
2019-02-09T01:25:31.208Z,9.48
2019-02-09T01:28:04.092Z,9.19
2019-02-09T01:30:37.024Z,9.08
2019-02-09T01:33:09.692Z,9.37
2019-02-09T01:35:42.570Z,9.63
2019-02-09T01:38:15.231Z,9.35
2019-02-09T01:40:47.883Z,9.15
2019-02-09T01:43:20.562Z,9.28
2019-02-09T01:45:53.250Z,9.37
2019-02-09T01:48:25.964Z,9.51
2019-02-09T01:50:58.706Z,9.63
2019-02-09T01:53:31.383Z,9.51
2019-02-09T01:56:04.091Z,9.43
2019-02-09T01:58:36.720Z,9.15
2019-02-09T02:01:09.457Z,9.10
2019-02-09T02:03:42.169Z,9.05
2019-02-09T02:06:15.117Z,8.27
2019-02-09T02:08:47.935Z,8.19
2019-02-09T02:11:20.541Z,8.42
2019-02-09T02:13:53.354Z,8.30
2019-02-09T02:16:26.016Z,8.14
2019-02-09T02:18:58.678Z,8.21
2019-02-09T02:21:31.341Z,8.61
2019-02-09T02:24:04.328Z,8.38
2019-02-09T02:26:37.056Z,8.63
2019-02-09T02:29:09.835Z,8.87
2019-02-09T02:31:42.484Z,8.46
2019-02-09T02:34:16.301Z,8.58
2019-02-09T02:36:48.998Z,8.97
2019-02-09T02:39:23.121Z,8.73
2019-02-09T02:41:55.762Z,8.63
2019-02-09T02:44:28.400Z,8.69
2019-02-09T02:47:01.126Z,9.18
2019-02-09T02:49:33.974Z,8.81
2019-02-09T02:52:06.638Z,8.97
2019-02-09T02:54:39.362Z,8.96
2019-02-09T02:57:12.264Z,8.88
2019-02-09T02:59:45.011Z,8.98
2019-02-09T03:02:17.718Z,8.96
2019-02-09T03:04:50.448Z,8.74
2019-02-09T03:07:23.235Z,8.36
2019-02-09T03:09:55.991Z,8.44
2019-02-09T03:12:28.719Z,8.08
2019-02-09T03:15:01.552Z,8.29
2019-02-09T03:17:34.207Z,8.38
2019-02-09T03:20:10.399Z,8.28
2019-02-09T03:22:43.161Z,8.02
2019-02-09T03:25:19.330Z,7.79
2019-02-09T03:27:52.097Z,7.79
2019-02-09T03:30:25.422Z,7.65
2019-02-09T03:32:58.301Z,7.86
2019-02-09T03:35:31.007Z,7.76
2019-02-09T03:38:03.856Z,7.73
2019-02-09T03:40:36.531Z,7.71
2019-02-09T03:43:09.438Z,7.69
2019-02-09T03:45:42.123Z,7.88
2019-02-09T03:48:14.781Z,7.69
2019-02-09T03:50:47.553Z,7.62
2019-02-09T03:53:20.258Z,7.56
2019-02-09T03:55:52.932Z,7.47
2019-02-09T03:58:25.655Z,7.51
2019-02-09T04:00:58.427Z,7.31
2019-02-09T04:03:31.067Z,7.25
2019-02-09T04:06:04.217Z,7.10
2019-02-09T04:08:36.840Z,7.09
2019-02-09T04:11:10.283Z,7.10
2019-02-09T04:13:43.307Z,7.03
2019-02-09T04:16:15.952Z,6.92
2019-02-09T04:18:48.603Z,6.95
2019-02-09T04:21:21.435Z,6.93
2019-02-09T04:23:54.075Z,6.83
2019-02-09T04:26:26.671Z,6.93
2019-02-09T04:28:59.296Z,6.80
2019-02-09T04:31:31.968Z,6.60
2019-02-09T04:34:04.846Z,6.43
2019-02-09T04:36:37.524Z,6.30
2019-02-09T04:39:12.932Z,6.36
2019-02-09T04:41:45.596Z,6.23
2019-02-09T04:44:19.072Z,6.32
2019-02-09T04:46:51.779Z,6.41
2019-02-09T04:49:24.432Z,6.28
2019-02-09T04:51:57.192Z,6.21
2019-02-09T04:54:29.755Z,6.20
2019-02-09T04:57:02.369Z,6.19
2019-02-09T04:59:34.932Z,6.18
2019-02-09T05:02:07.722Z,6.22
2019-02-09T05:04:40.273Z,6.09
2019-02-09T05:07:13.034Z,5.96
2019-02-09T05:09:46.801Z,5.71
2019-02-09T05:12:19.452Z,5.56
2019-02-09T05:14:52.959Z,5.59
2019-02-09T05:17:25.607Z,5.63
2019-02-09T05:19:58.215Z,5.50
2019-02-09T05:22:30.933Z,5.36
2019-02-09T05:25:03.602Z,5.50
2019-02-09T05:27:36.409Z,5.44
2019-02-09T05:30:16.531Z,5.46
2019-02-09T05:32:49.705Z,5.29
2019-02-09T05:35:22.472Z,5.40
2019-02-09T05:37:55.189Z,5.59
2019-02-09T05:40:27.895Z,5.64
2019-02-09T05:43:00.711Z,5.59
2019-02-09T05:45:33.385Z,5.52
2019-02-09T05:48:06.054Z,5.43
2019-02-09T05:50:38.805Z,5.41
2019-02-09T05:53:11.392Z,5.47
2019-02-09T05:55:44.046Z,5.42
2019-02-09T05:58:16.682Z,5.47
2019-02-09T06:00:49.410Z,5.46
2019-02-09T06:03:22.050Z,5.41
2019-02-09T06:05:54.735Z,5.20
2019-02-09T06:57:16.923Z,5.96
2019-02-09T06:59:49.575Z,5.78
2019-02-09T07:02:22.271Z,5.71
2019-02-09T07:04:54.892Z,5.77
2019-02-09T07:07:29.901Z,5.70
2019-02-09T07:10:02.485Z,5.54
2019-02-09T07:12:35.099Z,5.45
2019-02-09T07:15:11.310Z,5.33
2019-02-09T07:17:43.979Z,5.47
2019-02-09T07:20:17.083Z,5.44
2019-02-09T07:22:49.823Z,5.44
2019-02-09T07:25:22.637Z,5.28
2019-02-09T07:27:55.369Z,5.64
2019-02-09T07:30:29.057Z,5.80
2019-02-09T07:33:01.964Z,5.90
2019-02-09T07:35:34.744Z,6.09
2019-02-09T07:38:07.601Z,6.32
2019-02-09T07:40:40.314Z,6.45
2019-02-09T07:43:13.058Z,6.46
2019-02-09T07:45:47.320Z,6.47
2019-02-09T07:48:19.933Z,6.50
2019-02-09T07:50:52.815Z,6.67
2019-02-09T07:53:26.041Z,6.84
2019-02-09T07:55:58.991Z,6.78
2019-02-09T07:58:31.665Z,6.64
2019-02-09T08:01:05.893Z,6.89
2019-02-09T08:03:38.664Z,6.95
2019-02-09T08:06:11.709Z,6.96
2019-02-09T08:08:44.307Z,7.03
2019-02-09T08:11:16.963Z,7.01
2019-02-09T08:13:49.688Z,7.21
2019-02-09T08:16:22.334Z,7.18
2019-02-09T08:18:54.948Z,7.46
2019-02-09T08:21:27.801Z,7.42
2019-02-09T08:24:00.462Z,7.28
2019-02-09T08:26:33.779Z,7.14
2019-02-09T08:29:06.528Z,7.18
2019-02-09T08:31:39.315Z,7.14
2019-02-09T08:34:12.100Z,7.14
2019-02-09T08:36:44.556Z,7.17
2019-02-09T08:39:17.197Z,7.42
2019-02-09T08:41:51.041Z,7.57
2019-02-09T08:44:23.680Z,7.66
2019-02-09T08:46:56.475Z,8.07
2019-02-09T08:49:29.191Z,8.40
2019-02-09T08:52:01.969Z,8.88
2019-02-09T08:54:34.656Z,10.40
2019-02-09T08:57:07.300Z,11.72
2019-02-09T08:59:39.962Z,12.07
2019-02-09T09:02:20.157Z,13.55
2019-02-09T09:04:47.245Z,14.38
2019-02-09T09:07:19.969Z,15.28
2019-02-09T09:09:52.712Z,14.66
2019-02-09T09:12:25.449Z,13.37
2019-02-09T09:14:58.096Z,12.79
2019-02-09T09:17:30.803Z,12.08
2019-02-09T09:20:03.502Z,11.39
2019-02-09T09:22:36.234Z,11.45
2019-02-09T09:25:09.056Z,11.21
2019-02-09T09:27:41.720Z,10.15
2019-02-09T09:30:17.963Z,9.70
2019-02-09T09:32:50.745Z,11.26
2019-02-09T09:40:42.096Z,11.18
2019-02-09T10:14:37.549Z,12.47
2019-02-09T10:20:20.821Z,13.13
2019-02-09T10:22:53.711Z,12.88
2019-02-09T10:31:04.014Z,11.74
2019-02-09T10:33:36.768Z,12.41
2019-02-09T11:03:20.364Z,14.65
2019-02-09T11:05:53.406Z,13.14
2019-02-09T11:08:26.228Z,12.46
2019-02-09T11:10:58.973Z,12.30
2019-02-09T11:13:37.317Z,12.56
2019-02-09T11:16:10.123Z,12.53
